Oklahoma City, OK (73132)

1:04 AM CDT on May 23, 2015 (GMT -0500)
Brookside/Edenborogh | | Change Station
CLOSE
Current Station
Personal Weather Station
Location: Oklahoma City, OK
Elevation: 1240 ft
Nearby Weather Stations
Active Advisory: Flash Flood Watch Active Notice: Record Report

Elev 1240 ft 35.55 °N, 97.63 °W | Updated 20 seconds ago

Light Rain
Light Rain Mist
57.2 °F
Feels Like 57.2 °F
N
2.0
Wind Variable Wind from ESE
Gusts 3.0 mph

Today
High -- | Low -- °F
--% Chance of Precip.
Yesterday
High -- | Low -- °F
Precip. -- in
6:20 AM 8:34 PM
Waxing Crescent, 27% visible
Pressure 30.12 in
Visibility 4.0 miles
Clouds Overcast 900 ft
Dew Point 56 °F
Humidity 96%
Rainfall 0.00 in
Snow Depth Not available.
UV 0 out of 12
Pollen .80 out of 12
Air Quality Not available.
Flu Activity Sporadic
METAR KPWA 230553Z AUTO 15009KT 4SM -RA BR OVC009 15/13 A3014 RMK AO2 RAE05B53 SLP200 P0001 60001 T01500133 10150 20133 401560117 50001

More Conditions Fewer Conditions

Pressure 30.12 in
Visibility 4.0 miles
Clouds Overcast 900 ft
Dew Point 56 °F
Humidity 96%
Rainfall 0.00 in
Snow Depth Not available.
UV 0 out of 12
Pollen .80 out of 12
Air Quality Not available.
Flu Activity Sporadic
METAR KPWA 230553Z AUTO 15009KT 4SM -RA BR OVC009 15/13 A3014 RMK AO2 RAE05B53 SLP200 P0001 60001 T01500133 10150 20133 401560117 50001

More Conditions Fewer Conditions

10-Day Weather Forecast

Almanac

Astronomy

May. 23, 2015 Rise Set
Actual Time
Civil Twilight
Nautical Twilight
Astronomical Twilight
Moon
Length of Visible Light
Length of Day
Tomorrow will be .
, % of the Moon is Illuminated

Today's Extremes

State Highs State Lows

Community

WunderPhotos

Upload Photos

1,823,393 photos uploaded!

WunderBlogs® & News

Nearby

Air Quality

  Air Quality AQ Index Pollutant
Not available.

Snow Depth

Station Depth Elevation

Earthquake Activity

City Distance Mag. Time & Date
Minimum magnitude displayed is 2.5.

Coastal Water Temperatures

Place Temperature

Stations

Nearby Weather Stations

Station Location Temp. Windchill Dew Point Humidity Wind Precip. Elev Updated Type
                   
Flash Flood Watch
Statement as of 5:24 PM CDT on May 22, 2015

... Flash Flood Watch remains in effect through Monday morning...

The Flash Flood Watch continues for

* all of western... central... and southern Oklahoma... and western
North Texas.

* Through Monday morning

* 2 to 5 inches of rainfall... with locally higher amounts will be
possible.

Precautionary/preparedness actions...

Monitor weather forecasts and information. Avoid travel in
flooded areas... and make plans to get to higher ground if
flooding develops or worsens in your area.



Austin